sensor_id;sensor_type;location;lat;lon;timestamp;pressure;altitude;pressure_sealevel;temperature;humidity
56689;BME280;42565;53.342;-1.534;2022-07-26T00:02:16;99134.28;;;18.34;49.32
56689;BME280;42565;53.342;-1.534;2022-07-26T00:04:43;99134.81;;;18.58;49.45
56689;BME280;42565;53.342;-1.534;2022-07-26T00:07:10;99138.96;;;18.66;48.83
56689;BME280;42565;53.342;-1.534;2022-07-26T00:09:37;99143.42;;;18.58;48.55
56689;BME280;42565;53.342;-1.534;2022-07-26T00:12:04;99145.57;;;18.24;47.85
56689;BME280;42565;53.342;-1.534;2022-07-26T00:14:31;99148.30;;;18.89;48.32
56689;BME280;42565;53.342;-1.534;2022-07-26T00:17:00;99150.35;;;18.34;49.13
56689;BME280;42565;53.342;-1.534;2022-07-26T00:19:27;99154.78;;;18.19;49.10
56689;BME280;42565;53.342;-1.534;2022-07-26T00:21:55;99160.91;;;18.22;49.14
56689;BME280;42565;53.342;-1.534;2022-07-26T00:24:22;99164.12;;;18.69;48.73
56689;BME280;42565;53.342;-1.534;2022-07-26T00:26:50;99169.31;;;18.53;49.00
56689;BME280;42565;53.342;-1.534;2022-07-26T00:29:16;99173.62;;;18.45;49.19
56689;BME280;42565;53.342;-1.534;2022-07-26T00:31:43;99176.54;;;18.64;49.24
56689;BME280;42565;53.342;-1.534;2022-07-26T00:34:10;99176.09;;;18.02;49.12
56689;BME280;42565;53.342;-1.534;2022-07-26T00:36:36;99176.82;;;18.38;48.92
56689;BME280;42565;53.342;-1.534;2022-07-26T00:39:03;99180.45;;;18.21;49.26
56689;BME280;42565;53.342;-1.534;2022-07-26T00:41:30;99185.04;;;18.35;48.70
56689;BME280;42565;53.342;-1.534;2022-07-26T00:43:58;99189.01;;;18.57;48.31
56689;BME280;42565;53.342;-1.534;2022-07-26T00:46:25;99185.97;;;18.09;48.47
56689;BME280;42565;53.342;-1.534;2022-07-26T00:48:53;99190.37;;;18.23;48.85
56689;BME280;42565;53.342;-1.534;2022-07-26T00:51:20;99186.40;;;18.09;48.83
56689;BME280;42565;53.342;-1.534;2022-07-26T00:53:48;99194.59;;;18.04;48.53
56689;BME280;42565;53.342;-1.534;2022-07-26T00:56:15;99190.07;;;17.72;49.19
56689;BME280;42565;53.342;-1.534;2022-07-26T00:58:43;99189.21;;;17.97;49.39
56689;BME280;42565;53.342;-1.534;2022-07-26T01:01:10;99189.94;;;17.95;49.21
56689;BME280;42565;53.342;-1.534;2022-07-26T01:03:38;99191.52;;;17.91;49.31
56689;BME280;42565;53.342;-1.534;2022-07-26T01:06:05;99190.96;;;17.67;49.26
56689;BME280;42565;53.342;-1.534;2022-07-26T01:08:33;99186.62;;;17.80;49.42
56689;BME280;42565;53.342;-1.534;2022-07-26T01:11:01;99184.52;;;17.97;49.45
56689;BME280;42565;53.342;-1.534;2022-07-26T01:13:28;99184.93;;;18.17;49.46
56689;BME280;42565;53.342;-1.534;2022-07-26T01:15:55;99178.05;;;18.41;48.33
56689;BME280;42565;53.342;-1.534;2022-07-26T01:18:22;99182.96;;;18.25;48.51
56689;BME280;42565;53.342;-1.534;2022-07-26T01:20:49;99180.43;;;18.13;48.24
56689;BME280;42565;53.342;-1.534;2022-07-26T01:23:18;99181.64;;;18.44;48.20
56689;BME280;42565;53.342;-1.534;2022-07-26T01:25:46;99187.96;;;18.15;48.90
56689;BME280;42565;53.342;-1.534;2022-07-26T01:28:13;99179.79;;;18.07;48.68
56689;BME280;42565;53.342;-1.534;2022-07-26T01:30:40;99186.73;;;17.82;48.95
56689;BME280;42565;53.342;-1.534;2022-07-26T01:33:06;99192.42;;;17.63;48.82
56689;BME280;42565;53.342;-1.534;2022-07-26T01:35:33;99192.79;;;18.08;48.55
56689;BME280;42565;53.342;-1.534;2022-07-26T01:38:00;99192.15;;;18.01;48.40
56689;BME280;42565;53.342;-1.534;2022-07-26T01:40:27;99184.22;;;17.77;48.91
56689;BME280;42565;53.342;-1.534;2022-07-26T01:42:54;99186.35;;;18.00;48.99
56689;BME280;42565;53.342;-1.534;2022-07-26T01:45:21;99191.20;;;17.81;49.54
56689;BME280;42565;53.342;-1.534;2022-07-26T01:47:47;99192.47;;;17.85;49.03
56689;BME280;42565;53.342;-1.534;2022-07-26T01:50:16;99193.86;;;17.63;49.63
56689;BME280;42565;53.342;-1.534;2022-07-26T01:52:43;99196.97;;;17.72;49.35
56689;BME280;42565;53.342;-1.534;2022-07-26T01:55:10;99196.99;;;17.46;49.88
56689;BME280;42565;53.342;-1.534;2022-07-26T01:57:38;99198.67;;;17.73;49.35
56689;BME280;42565;53.342;-1.534;2022-07-26T02:00:06;99198.37;;;17.80;49.05
56689;BME280;42565;53.342;-1.534;2022-07-26T02:02:33;99197.81;;;18.03;48.91
56689;BME280;42565;53.342;-1.534;2022-07-26T02:05:01;99201.93;;;17.92;48.76
56689;BME280;42565;53.342;-1.534;2022-07-26T02:07:29;99204.68;;;18.14;48.74
56689;BME280;42565;53.342;-1.534;2022-07-26T02:09:57;99201.37;;;18.31;48.47
56689;BME280;42565;53.342;-1.534;2022-07-26T02:12:25;99197.86;;;17.95;48.91
56689;BME280;42565;53.342;-1.534;2022-07-26T02:14:52;99192.30;;;17.95;48.65
56689;BME280;42565;53.342;-1.534;2022-07-26T02:17:19;99193.24;;;18.06;48.49
56689;BME280;42565;53.342;-1.534;2022-07-26T02:19:47;99193.99;;;18.09;48.40
56689;BME280;42565;53.342;-1.534;2022-07-26T02:22:14;99195.02;;;17.91;48.32
56689;BME280;42565;53.342;-1.534;2022-07-26T02:24:42;99195.56;;;18.28;48.42
56689;BME280;42565;53.342;-1.534;2022-07-26T02:27:08;99197.66;;;18.03;48.81
56689;BME280;42565;53.342;-1.534;2022-07-26T02:29:36;99194.75;;;17.88;49.09
56689;BME280;42565;53.342;-1.534;2022-07-26T02:32:03;99192.86;;;17.67;48.93
56689;BME280;42565;53.342;-1.534;2022-07-26T02:34:31;99190.08;;;18.00;49.16
56689;BME280;42565;53.342;-1.534;2022-07-26T02:36:59;99190.67;;;17.70;48.86
56689;BME280;42565;53.342;-1.534;2022-07-26T02:39:27;99194.34;;;17.95;48.46
56689;BME280;42565;53.342;-1.534;2022-07-26T02:41:55;99202.04;;;17.95;49.05
56689;BME280;42565;53.342;-1.534;2022-07-26T02:44:24;99200.75;;;17.79;49.37
56689;BME280;42565;53.342;-1.534;2022-07-26T02:46:52;99205.94;;;18.03;49.16
56689;BME280;42565;53.342;-1.534;2022-07-26T02:49:20;99210.33;;;17.93;49.42
56689;BME280;42565;53.342;-1.534;2022-07-26T02:51:47;99214.70;;;18.04;48.97
56689;BME280;42565;53.342;-1.534;2022-07-26T02:54:15;99213.92;;;17.92;48.45
56689;BME280;42565;53.342;-1.534;2022-07-26T02:56:42;99213.89;;;17.91;48.30
56689;BME280;42565;53.342;-1.534;2022-07-26T02:59:10;99212.19;;;17.96;48.29
56689;BME280;42565;53.342;-1.534;2022-07-26T03:01:36;99209.11;;;17.90;48.42
56689;BME280;42565;53.342;-1.534;2022-07-26T03:04:04;99217.65;;;17.43;48.99
56689;BME280;42565;53.342;-1.534;2022-07-26T03:06:31;99217.56;;;17.52;49.34
56689;BME280;42565;53.342;-1.534;2022-07-26T03:08:58;99219.64;;;17.78;48.63
56689;BME280;42565;53.342;-1.534;2022-07-26T03:11:26;99221.19;;;17.65;49.16
56689;BME280;42565;53.342;-1.534;2022-07-26T03:13:53;99223.51;;;17.59;48.87
56689;BME280;42565;53.342;-1.534;2022-07-26T03:16:19;99223.76;;;17.69;48.70
56689;BME280;42565;53.342;-1.534;2022-07-26T03:18:46;99223.12;;;17.96;48.57
56689;BME280;42565;53.342;-1.534;2022-07-26T03:21:13;99228.37;;;17.90;48.10
56689;BME280;42565;53.342;-1.534;2022-07-26T03:23:40;99229.89;;;18.19;48.51
56689;BME280;42565;53.342;-1.534;2022-07-26T03:26:08;99233.57;;;17.88;48.88
56689;BME280;42565;53.342;-1.534;2022-07-26T03:28:35;99234.64;;;18.14;48.78
56689;BME280;42565;53.342;-1.534;2022-07-26T03:31:02;99236.86;;;17.92;48.46
56689;BME280;42565;53.342;-1.534;2022-07-26T03:33:30;99239.62;;;18.31;48.46
56689;BME280;42565;53.342;-1.534;2022-07-26T03:35:57;99243.96;;;18.00;49.25
56689;BME280;42565;53.342;-1.534;2022-07-26T03:38:24;99248.97;;;17.69;48.95
56689;BME280;42565;53.342;-1.534;2022-07-26T03:40:51;99251.70;;;17.92;49.40
56689;BME280;42565;53.342;-1.534;2022-07-26T03:43:19;99257.16;;;18.14;48.99
56689;BME280;42565;53.342;-1.534;2022-07-26T03:45:46;99254.41;;;17.74;48.74
56689;BME280;42565;53.342;-1.534;2022-07-26T03:48:13;99254.20;;;17.31;48.86
56689;BME280;42565;53.342;-1.534;2022-07-26T03:50:41;99258.49;;;17.33;48.45
56689;BME280;42565;53.342;-1.534;2022-07-26T03:53:08;99262.57;;;17.33;48.51
56689;BME280;42565;53.342;-1.534;2022-07-26T03:55:35;99267.22;;;17.34;48.86
56689;BME280;42565;53.342;-1.534;2022-07-26T03:58:02;99271.28;;;17.41;48.55
56689;BME280;42565;53.342;-1.534;2022-07-26T04:00:29;99270.66;;;17.49;48.52
56689;BME280;42565;53.342;-1.534;2022-07-26T04:02:56;99270.54;;;17.62;48.21
56689;BME280;42565;53.342;-1.534;2022-07-26T04:05:22;99271.10;;;17.56;48.34
56689;BME280;42565;53.342;-1.534;2022-07-26T04:07:49;99267.45;;;17.37;48.55
56689;BME280;42565;53.342;-1.534;2022-07-26T04:10:17;99266.67;;;17.15;48.63
56689;BME280;42565;53.342;-1.534;2022-07-26T04:12:44;99271.78;;;17.39;48.27
56689;BME280;42565;53.342;-1.534;2022-07-26T04:15:11;99276.21;;;17.51;47.92
56689;BME280;42565;53.342;-1.534;2022-07-26T04:17:39;99272.24;;;17.05;48.65
56689;BME280;42565;53.342;-1.534;2022-07-26T04:20:08;99275.35;;;17.11;48.54
56689;BME280;42565;53.342;-1.534;2022-07-26T04:22:37;99280.33;;;17.54;47.86
56689;BME280;42565;53.342;-1.534;2022-07-26T04:25:07;99282.99;;;17.41;47.87
56689;BME280;42565;53.342;-1.534;2022-07-26T04:27:36;99281.47;;;17.81;48.44
56689;BME280;42565;53.342;-1.534;2022-07-26T04:30:03;99278.41;;;17.49;48.12
56689;BME280;42565;53.342;-1.534;2022-07-26T04:32:31;99277.91;;;17.67;47.95
56689;BME280;42565;53.342;-1.534;2022-07-26T04:34:58;99278.58;;;17.40;48.57
56689;BME280;42565;53.342;-1.534;2022-07-26T04:37:24;99281.88;;;17.55;48.84
56689;BME280;42565;53.342;-1.534;2022-07-26T04:39:51;99280.90;;;17.66;49.49
56689;BME280;42565;53.342;-1.534;2022-07-26T04:42:18;99282.85;;;17.45;49.41
56689;BME280;42565;53.342;-1.534;2022-07-26T04:44:44;99289.05;;;17.39;49.04
56689;BME280;42565;53.342;-1.534;2022-07-26T04:47:11;99291.20;;;17.39;49.12
56689;BME280;42565;53.342;-1.534;2022-07-26T04:49:38;99291.54;;;17.54;48.99
56689;BME280;42565;53.342;-1.534;2022-07-26T04:52:05;99291.31;;;17.32;49.62
56689;BME280;42565;53.342;-1.534;2022-07-26T04:54:32;99295.32;;;17.48;49.33
56689;BME280;42565;53.342;-1.534;2022-07-26T04:56:59;99298.47;;;17.48;49.31
56689;BME280;42565;53.342;-1.534;2022-07-26T04:59:26;99301.07;;;17.57;49.56
56689;BME280;42565;53.342;-1.534;2022-07-26T05:01:53;99302.08;;;17.78;48.98
56689;BME280;42565;53.342;-1.534;2022-07-26T05:04:20;99307.41;;;17.91;49.18
56689;BME280;42565;53.342;-1.534;2022-07-26T05:06:48;99304.76;;;17.53;49.45
56689;BME280;42565;53.342;-1.534;2022-07-26T05:09:15;99307.19;;;17.80;49.35
56689;BME280;42565;53.342;-1.534;2022-07-26T05:11:41;99307.55;;;17.95;49.05
56689;BME280;42565;53.342;-1.534;2022-07-26T05:14:08;99306.12;;;18.15;48.85
56689;BME280;42565;53.342;-1.534;2022-07-26T05:16:35;99305.00;;;18.34;48.70
56689;BME280;42565;53.342;-1.534;2022-07-26T05:19:02;99305.23;;;18.25;48.33
56689;BME280;42565;53.342;-1.534;2022-07-26T05:21:29;99302.56;;;18.56;47.93
56689;BME280;42565;53.342;-1.534;2022-07-26T05:23:56;99305.91;;;18.50;47.55
56689;BME280;42565;53.342;-1.534;2022-07-26T05:26:23;99307.96;;;18.49;47.87
56689;BME280;42565;53.342;-1.534;2022-07-26T05:28:50;99306.62;;;18.50;48.09
56689;BME280;42565;53.342;-1.534;2022-07-26T05:31:17;99309.36;;;18.41;48.09
56689;BME280;42565;53.342;-1.534;2022-07-26T05:33:43;99312.25;;;18.58;48.15
56689;BME280;42565;53.342;-1.534;2022-07-26T05:36:10;99313.76;;;18.19;48.04
56689;BME280;42565;53.342;-1.534;2022-07-26T05:38:38;99315.94;;;18.26;48.61
56689;BME280;42565;53.342;-1.534;2022-07-26T05:41:06;99320.77;;;18.13;48.18
56689;BME280;42565;53.342;-1.534;2022-07-26T05:43:33;99324.35;;;18.35;48.31
56689;BME280;42565;53.342;-1.534;2022-07-26T05:46:01;99329.60;;;18.56;47.70
56689;BME280;42565;53.342;-1.534;2022-07-26T05:48:28;99329.51;;;18.34;48.40
56689;BME280;42565;53.342;-1.534;2022-07-26T05:50:55;99332.00;;;18.54;48.11
56689;BME280;42565;53.342;-1.534;2022-07-26T05:53:22;99335.62;;;18.75;47.88
56689;BME280;42565;53.342;-1.534;2022-07-26T05:55:49;99335.79;;;18.40;48.23
56689;BME280;42565;53.342;-1.534;2022-07-26T05:58:16;99332.81;;;18.52;47.65
56689;BME280;42565;53.342;-1.534;2022-07-26T06:00:43;99331.70;;;18.56;47.83
56689;BME280;42565;53.342;-1.534;2022-07-26T06:03:11;99332.38;;;18.67;47.64
56689;BME280;42565;53.342;-1.534;2022-07-26T06:05:37;99336.86;;;19.13;46.87
56689;BME280;42565;53.342;-1.534;2022-07-26T06:08:05;99338.16;;;18.75;46.58
56689;BME280;42565;53.342;-1.534;2022-07-26T06:10:31;99338.97;;;19.36;46.75
56689;BME280;42565;53.342;-1.534;2022-07-26T06:12:58;99332.47;;;19.16;46.37
56689;BME280;42565;53.342;-1.534;2022-07-26T06:15:25;99331.93;;;18.73;45.90
56689;BME280;42565;53.342;-1.534;2022-07-26T06:17:52;99332.97;;;18.71;47.20
56689;BME280;42565;53.342;-1.534;2022-07-26T06:20:19;99340.65;;;18.78;46.02
56689;BME280;42565;53.342;-1.534;2022-07-26T06:22:47;99338.27;;;18.87;46.92
56689;BME280;42565;53.342;-1.534;2022-07-26T06:25:13;99341.28;;;18.74;47.08
56689;BME280;42565;53.342;-1.534;2022-07-26T06:27:41;99342.72;;;19.16;45.85
56689;BME280;42565;53.342;-1.534;2022-07-26T06:30:09;99345.18;;;19.03;45.88
56689;BME280;42565;53.342;-1.534;2022-07-26T06:32:37;99343.99;;;19.17;45.16
56689;BME280;42565;53.342;-1.534;2022-07-26T06:35:04;99349.02;;;17.76;46.88
56689;BME280;42565;53.342;-1.534;2022-07-26T06:37:35;99351.40;;;18.50;45.69
56689;BME280;42565;53.342;-1.534;2022-07-26T06:40:03;99352.85;;;18.06;45.99
56689;BME280;42565;53.342;-1.534;2022-07-26T06:42:31;99358.66;;;19.03;46.35
56689;BME280;42565;53.342;-1.534;2022-07-26T06:44:58;99355.74;;;18.98;45.66
56689;BME280;42565;53.342;-1.534;2022-07-26T06:47:26;99353.51;;;18.39;47.80
56689;BME280;42565;53.342;-1.534;2022-07-26T06:49:53;99353.86;;;18.58;47.58
56689;BME280;42565;53.342;-1.534;2022-07-26T06:52:21;99357.16;;;18.20;47.43
56689;BME280;42565;53.342;-1.534;2022-07-26T06:54:48;99360.79;;;17.76;48.03
56689;BME280;42565;53.342;-1.534;2022-07-26T06:57:15;99363.57;;;17.48;49.62
56689;BME280;42565;53.342;-1.534;2022-07-26T06:59:42;99365.35;;;17.47;49.51
56689;BME280;42565;53.342;-1.534;2022-07-26T07:02:08;99374.03;;;16.67;52.47
56689;BME280;42565;53.342;-1.534;2022-07-26T07:04:35;99373.88;;;16.87;53.25
56689;BME280;42565;53.342;-1.534;2022-07-26T07:07:02;99371.76;;;17.04;52.79
56689;BME280;42565;53.342;-1.534;2022-07-26T07:09:30;99377.28;;;17.21;51.42
56689;BME280;42565;53.342;-1.534;2022-07-26T07:11:57;99385.95;;;16.76;53.35
56689;BME280;42565;53.342;-1.534;2022-07-26T07:14:24;99389.77;;;16.59;53.56
56689;BME280;42565;53.342;-1.534;2022-07-26T07:16:50;99392.15;;;16.36;55.12
56689;BME280;42565;53.342;-1.534;2022-07-26T07:19:17;99390.63;;;15.91;54.54
56689;BME280;42565;53.342;-1.534;2022-07-26T07:21:44;99393.10;;;16.91;53.08
56689;BME280;42565;53.342;-1.534;2022-07-26T07:24:11;99392.61;;;17.10;52.19
56689;BME280;42565;53.342;-1.534;2022-07-26T07:26:38;99401.70;;;16.36;53.32
56689;BME280;42565;53.342;-1.534;2022-07-26T07:29:06;99401.43;;;16.58;53.41
56689;BME280;42565;53.342;-1.534;2022-07-26T07:31:33;99406.08;;;16.57;53.23
56689;BME280;42565;53.342;-1.534;2022-07-26T07:34:00;99410.17;;;16.33;54.47
56689;BME280;42565;53.342;-1.534;2022-07-26T07:36:28;99410.60;;;16.41;54.84
56689;BME280;42565;53.342;-1.534;2022-07-26T07:38:55;99412.29;;;16.22;54.33
56689;BME280;42565;53.342;-1.534;2022-07-26T07:41:22;99414.92;;;16.28;55.01
56689;BME280;42565;53.342;-1.534;2022-07-26T07:43:48;99416.08;;;16.20;55.54
56689;BME280;42565;53.342;-1.534;2022-07-26T07:46:15;99417.29;;;16.10;55.85
56689;BME280;42565;53.342;-1.534;2022-07-26T07:48:43;99415.36;;;15.06;58.32
56689;BME280;42565;53.342;-1.534;2022-07-26T07:51:09;99415.07;;;14.88;58.38
56689;BME280;42565;53.342;-1.534;2022-07-26T07:53:36;99413.68;;;15.28;58.92
56689;BME280;42565;53.342;-1.534;2022-07-26T07:56:04;99414.75;;;15.33;57.52
56689;BME280;42565;53.342;-1.534;2022-07-26T07:58:31;99415.35;;;16.31;56.73
56689;BME280;42565;53.342;-1.534;2022-07-26T08:00:58;99414.69;;;15.06;58.99
56689;BME280;42565;53.342;-1.534;2022-07-26T08:03:26;99414.70;;;15.57;59.14
56689;BME280;42565;53.342;-1.534;2022-07-26T08:05:54;99420.68;;;15.58;59.51
56689;BME280;42565;53.342;-1.534;2022-07-26T08:08:21;99423.31;;;15.49;59.46
56689;BME280;42565;53.342;-1.534;2022-07-26T08:10:49;99424.21;;;15.52;60.13
56689;BME280;42565;53.342;-1.534;2022-07-26T08:13:17;99419.75;;;15.44;58.29
56689;BME280;42565;53.342;-1.534;2022-07-26T08:15:44;99422.36;;;15.70;57.62
56689;BME280;42565;53.342;-1.534;2022-07-26T08:18:11;99426.46;;;15.05;59.85
56689;BME280;42565;53.342;-1.534;2022-07-26T08:20:38;99424.41;;;15.25;58.58
56689;BME280;42565;53.342;-1.534;2022-07-26T08:23:04;99425.39;;;15.28;58.52
56689;BME280;42565;53.342;-1.534;2022-07-26T08:25:32;99424.39;;;16.17;57.64
56689;BME280;42565;53.342;-1.534;2022-07-26T08:27:59;99426.54;;;16.22;57.69
56689;BME280;42565;53.342;-1.534;2022-07-26T08:30:26;99428.60;;;16.31;56.95
56689;BME280;42565;53.342;-1.534;2022-07-26T08:32:54;99424.55;;;15.89;56.44
56689;BME280;42565;53.342;-1.534;2022-07-26T08:35:20;99429.68;;;14.45;60.18
56689;BME280;42565;53.342;-1.534;2022-07-26T08:37:47;99430.19;;;14.36;61.55
56689;BME280;42565;53.342;-1.534;2022-07-26T08:40:15;99432.11;;;14.48;60.92
56689;BME280;42565;53.342;-1.534;2022-07-26T08:42:48;99431.78;;;15.06;61.98
56689;BME280;42565;53.342;-1.534;2022-07-26T08:45:20;99436.97;;;14.82;61.91
56689;BME280;42565;53.342;-1.534;2022-07-26T08:47:48;99436.29;;;15.67;59.07
56689;BME280;42565;53.342;-1.534;2022-07-26T08:50:16;99436.85;;;15.45;60.27
56689;BME280;42565;53.342;-1.534;2022-07-26T08:52:43;99438.48;;;15.45;60.02
56689;BME280;42565;53.342;-1.534;2022-07-26T08:55:16;99442.02;;;15.53;59.46
56689;BME280;42565;53.342;-1.534;2022-07-26T08:57:44;99440.86;;;15.78;60.41
56689;BME280;42565;53.342;-1.534;2022-07-26T09:00:14;99443.24;;;14.48;61.36
56689;BME280;42565;53.342;-1.534;2022-07-26T09:02:42;99438.41;;;15.30;59.74
56689;BME280;42565;53.342;-1.534;2022-07-26T09:05:10;99444.96;;;15.09;59.73
56689;BME280;42565;53.342;-1.534;2022-07-26T09:07:38;99444.78;;;15.51;61.10
56689;BME280;42565;53.342;-1.534;2022-07-26T09:10:07;99446.23;;;15.47;59.93
56689;BME280;42565;53.342;-1.534;2022-07-26T09:12:36;99445.94;;;16.22;57.90
56689;BME280;42565;53.342;-1.534;2022-07-26T09:15:06;99448.97;;;15.85;58.97
56689;BME280;42565;53.342;-1.534;2022-07-26T09:17:39;99446.56;;;15.23;61.00
56689;BME280;42565;53.342;-1.534;2022-07-26T09:20:10;99446.94;;;15.43;61.43
56689;BME280;42565;53.342;-1.534;2022-07-26T09:22:54;99457.01;;;15.61;61.05
56689;BME280;42565;53.342;-1.534;2022-07-26T09:25:22;99450.14;;;15.55;61.39
56689;BME280;42565;53.342;-1.534;2022-07-26T09:27:51;99453.25;;;16.24;60.67
56689;BME280;42565;53.342;-1.534;2022-07-26T09:30:18;99451.68;;;15.77;59.98
56689;BME280;42565;53.342;-1.534;2022-07-26T09:32:56;99448.26;;;15.71;60.03
56689;BME280;42565;53.342;-1.534;2022-07-26T09:35:23;99451.40;;;15.69;60.70
56689;BME280;42565;53.342;-1.534;2022-07-26T09:37:50;99458.54;;;15.57;60.87
56689;BME280;42565;53.342;-1.534;2022-07-26T09:40:18;99468.86;;;16.33;59.09
56689;BME280;42565;53.342;-1.534;2022-07-26T09:42:54;99469.14;;;16.68;57.10
56689;BME280;42565;53.342;-1.534;2022-07-26T09:45:22;99467.46;;;17.18;54.09
56689;BME280;42565;53.342;-1.534;2022-07-26T09:47:49;99459.60;;;17.75;51.22
56689;BME280;42565;53.342;-1.534;2022-07-26T09:50:19;99462.23;;;18.08;50.45
56689;BME280;42565;53.342;-1.534;2022-07-26T09:53:04;99465.95;;;17.31;52.21
56689;BME280;42565;53.342;-1.534;2022-07-26T09:55:33;99463.38;;;18.06;49.54
56689;BME280;42565;53.342;-1.534;2022-07-26T09:58:02;99464.33;;;18.35;52.45
56689;BME280;42565;53.342;-1.534;2022-07-26T10:00:31;99464.68;;;18.64;50.55
56689;BME280;42565;53.342;-1.534;2022-07-26T10:02:59;99464.85;;;18.73;49.64
56689;BME280;42565;53.342;-1.534;2022-07-26T10:05:26;99467.55;;;19.03;51.56
56689;BME280;42565;53.342;-1.534;2022-07-26T10:07:54;99469.27;;;19.78;46.92
56689;BME280;42565;53.342;-1.534;2022-07-26T10:10:25;99466.95;;;19.78;47.99
56689;BME280;42565;53.342;-1.534;2022-07-26T10:12:54;99460.77;;;19.93;46.75
56689;BME280;42565;53.342;-1.534;2022-07-26T10:15:41;99462.68;;;20.18;48.24
56689;BME280;42565;53.342;-1.534;2022-07-26T10:18:09;99458.54;;;18.55;47.60
56689;BME280;42565;53.342;-1.534;2022-07-26T10:20:40;99463.58;;;19.28;47.25
56689;BME280;42565;53.342;-1.534;2022-07-26T10:23:41;99459.63;;;19.15;46.82
56689;BME280;42565;53.342;-1.534;2022-07-26T10:26:11;99456.53;;;19.94;46.69
56689;BME280;42565;53.342;-1.534;2022-07-26T10:28:39;99456.52;;;20.10;45.72
56689;BME280;42565;53.342;-1.534;2022-07-26T10:31:39;99456.14;;;19.84;47.33
56689;BME280;42565;53.342;-1.534;2022-07-26T10:34:07;99458.25;;;19.30;46.56
56689;BME280;42565;53.342;-1.534;2022-07-26T10:36:36;99460.74;;;20.24;44.05
56689;BME280;42565;53.342;-1.534;2022-07-26T10:39:07;99458.55;;;19.52;44.89
56689;BME280;42565;53.342;-1.534;2022-07-26T10:41:39;99464.21;;;19.89;43.80
56689;BME280;42565;53.342;-1.534;2022-07-26T10:44:18;99460.70;;;18.99;45.50
56689;BME280;42565;53.342;-1.534;2022-07-26T10:47:18;99466.38;;;19.22;44.86
56689;BME280;42565;53.342;-1.534;2022-07-26T10:49:55;99468.84;;;20.15;44.11
56689;BME280;42565;53.342;-1.534;2022-07-26T10:52:24;99471.01;;;19.85;44.45
56689;BME280;42565;53.342;-1.534;2022-07-26T10:55:08;99473.04;;;20.11;43.48
56689;BME280;42565;53.342;-1.534;2022-07-26T10:57:37;99476.75;;;20.23;43.73
56689;BME280;42565;53.342;-1.534;2022-07-26T11:00:12;99472.15;;;19.63;45.08
56689;BME280;42565;53.342;-1.534;2022-07-26T11:02:41;99473.08;;;20.03;44.70
56689;BME280;42565;53.342;-1.534;2022-07-26T11:05:10;99476.05;;;19.62;44.81
56689;BME280;42565;53.342;-1.534;2022-07-26T11:07:50;99476.99;;;19.67;44.36
56689;BME280;42565;53.342;-1.534;2022-07-26T11:10:22;99479.51;;;19.27;44.92
56689;BME280;42565;53.342;-1.534;2022-07-26T11:13:23;99480.66;;;19.20;45.45
56689;BME280;42565;53.342;-1.534;2022-07-26T11:15:57;99482.51;;;18.97;46.52
56689;BME280;42565;53.342;-1.534;2022-07-26T11:18:26;99485.69;;;19.10;45.60
56689;BME280;42565;53.342;-1.534;2022-07-26T11:20:54;99482.32;;;19.03;45.57
56689;BME280;42565;53.342;-1.534;2022-07-26T11:23:25;99483.55;;;18.91;46.05
56689;BME280;42565;53.342;-1.534;2022-07-26T11:26:12;99487.88;;;18.45;45.66
56689;BME280;42565;53.342;-1.534;2022-07-26T11:28:44;99492.29;;;18.88;45.61
56689;BME280;42565;53.342;-1.534;2022-07-26T11:31:13;99495.14;;;19.37;44.91
56689;BME280;42565;53.342;-1.534;2022-07-26T11:33:43;99493.60;;;19.51;45.00
56689;BME280;42565;53.342;-1.534;2022-07-26T11:36:11;99495.47;;;19.23;44.25
56689;BME280;42565;53.342;-1.534;2022-07-26T11:38:47;99494.64;;;19.35;44.14
56689;BME280;42565;53.342;-1.534;2022-07-26T11:41:18;99491.75;;;19.12;44.17
56689;BME280;42565;53.342;-1.534;2022-07-26T11:43:45;99493.39;;;19.89;43.60
56689;BME280;42565;53.342;-1.534;2022-07-26T11:46:13;99490.38;;;19.65;45.57
56689;BME280;42565;53.342;-1.534;2022-07-26T11:48:44;99491.49;;;19.91;43.58
56689;BME280;42565;53.342;-1.534;2022-07-26T11:51:13;99487.04;;;19.87;43.40
56689;BME280;42565;53.342;-1.534;2022-07-26T11:53:41;99478.49;;;20.27;41.86
56689;BME280;42565;53.342;-1.534;2022-07-26T11:56:11;99482.22;;;20.44;41.65
56689;BME280;42565;53.342;-1.534;2022-07-26T11:58:39;99478.35;;;21.38;39.17
56689;BME280;42565;53.342;-1.534;2022-07-26T12:01:08;99480.67;;;21.42;39.79
56689;BME280;42565;53.342;-1.534;2022-07-26T12:03:35;99478.93;;;22.24;37.42
56689;BME280;42565;53.342;-1.534;2022-07-26T12:06:04;99477.05;;;21.47;37.71
56689;BME280;42565;53.342;-1.534;2022-07-26T12:08:42;99485.36;;;21.88;39.05
56689;BME280;42565;53.342;-1.534;2022-07-26T12:11:09;99479.91;;;21.98;36.66
56689;BME280;42565;53.342;-1.534;2022-07-26T12:13:55;99481.23;;;22.43;37.26
56689;BME280;42565;53.342;-1.534;2022-07-26T12:16:56;99478.79;;;22.80;36.27
56689;BME280;42565;53.342;-1.534;2022-07-26T12:19:26;99477.15;;;23.13;36.48
56689;BME280;42565;53.342;-1.534;2022-07-26T12:21:55;99475.35;;;24.43;34.30
56689;BME280;42565;53.342;-1.534;2022-07-26T12:24:46;99475.03;;;24.58;34.36
56689;BME280;42565;53.342;-1.534;2022-07-26T12:27:16;99478.67;;;24.22;33.61
56689;BME280;42565;53.342;-1.534;2022-07-26T12:29:45;99471.91;;;24.26;33.40
56689;BME280;42565;53.342;-1.534;2022-07-26T12:32:13;99473.33;;;24.58;34.70
56689;BME280;42565;53.342;-1.534;2022-07-26T12:34:54;99469.96;;;24.61;33.39
56689;BME280;42565;53.342;-1.534;2022-07-26T12:37:22;99472.14;;;24.57;32.21
56689;BME280;42565;53.342;-1.534;2022-07-26T12:40:00;99470.03;;;25.09;31.81
56689;BME280;42565;53.342;-1.534;2022-07-26T12:42:29;99472.09;;;24.05;32.36
56689;BME280;42565;53.342;-1.534;2022-07-26T12:44:57;99473.53;;;24.59;31.25
56689;BME280;42565;53.342;-1.534;2022-07-26T12:47:25;99469.21;;;25.06;30.80
56689;BME280;42565;53.342;-1.534;2022-07-26T12:49:53;99469.37;;;24.42;31.68
56689;BME280;42565;53.342;-1.534;2022-07-26T12:52:22;99463.67;;;24.21;33.47
56689;BME280;42565;53.342;-1.534;2022-07-26T12:54:51;99459.70;;;22.26;34.66
56689;BME280;42565;53.342;-1.534;2022-07-26T12:57:18;99466.17;;;21.54;35.15
56689;BME280;42565;53.342;-1.534;2022-07-26T12:59:46;99458.36;;;22.76;34.64